createdAt,value
2022-11-29T00:00:47.094Z,98289.59
2022-11-29T00:03:15.121Z,98295.50
2022-11-29T00:05:41.814Z,98289.13
2022-11-29T00:08:08.427Z,98293.03
2022-11-29T00:10:38.080Z,98294.81
2022-11-29T00:13:05.289Z,98296.97
2022-11-29T00:15:38.780Z,98296.13
2022-11-29T00:18:07.186Z,98285.28
2022-11-29T00:20:34.730Z,98287.97
2022-11-29T00:23:01.239Z,98292.09
2022-11-29T00:25:28.173Z,98293.63
2022-11-29T00:27:54.690Z,98282.34
2022-11-29T00:30:21.583Z,98280.81
2022-11-29T00:32:48.252Z,98276.81
2022-11-29T00:35:14.768Z,98280.34
2022-11-29T00:37:41.309Z,98280.06
2022-11-29T00:40:08.597Z,98281.28
2022-11-29T00:42:35.053Z,98288.72
2022-11-29T00:45:01.552Z,98289.00
2022-11-29T00:47:28.018Z,98294.47
2022-11-29T00:49:54.596Z,98291.38
2022-11-29T00:52:21.032Z,98287.56
2022-11-29T00:54:47.602Z,98288.72
2022-11-29T00:57:14.039Z,98286.34
2022-11-29T00:59:40.560Z,98286.63
2022-11-29T01:02:07.054Z,98279.50
2022-11-29T01:04:33.632Z,98281.28
2022-11-29T01:07:00.109Z,98284.06
2022-11-29T01:09:26.663Z,98287.91
2022-11-29T01:11:53.188Z,98291.16
2022-11-29T01:14:19.781Z,98287.97
2022-11-29T01:16:46.330Z,98293.41
2022-11-29T01:19:12.889Z,98292.28
2022-11-29T01:21:39.582Z,98299.94
2022-11-29T01:24:06.216Z,98294.78
2022-11-29T01:26:33.165Z,98295.34
2022-11-29T01:28:59.796Z,98285.09
2022-11-29T01:31:32.669Z,98292.50
2022-11-29T01:34:01.876Z,98293.25
2022-11-29T01:36:28.774Z,98296.13
2022-11-29T01:38:55.380Z,98289.38
2022-11-29T01:41:26.880Z,98293.63
2022-11-29T01:44:11.730Z,98297.75
2022-11-29T01:46:46.010Z,98308.28
2022-11-29T01:49:21.698Z,98302.66
2022-11-29T01:52:04.883Z,98299.03
2022-11-29T01:54:34.076Z,98301.16
2022-11-29T01:57:05.464Z,98295.56
2022-11-29T01:59:32.347Z,98297.19
2022-11-29T02:02:11.907Z,98302.94
2022-11-29T02:04:41.603Z,98293.63
2022-11-29T02:07:08.720Z,98303.38
2022-11-29T02:09:35.227Z,98302.78
2022-11-29T02:12:31.291Z,98302.22
2022-11-29T02:15:09.887Z,98292.88
2022-11-29T02:17:59.636Z,98308.03
2022-11-29T02:20:50.867Z,98302.09
2022-11-29T02:23:39.526Z,98308.16
2022-11-29T02:26:36.438Z,98302.22
2022-11-29T02:29:54.462Z,98311.19
2022-11-29T02:32:42.467Z,98300.88
2022-11-29T02:35:36.626Z,98314.75
2022-11-29T02:38:18.419Z,98309.88
2022-11-29T02:40:53.212Z,98318.00
2022-11-29T02:43:57.987Z,98309.25
2022-11-29T02:46:27.326Z,98313.41
2022-11-29T02:49:16.815Z,98314.50
2022-11-29T02:52:00.256Z,98309.78
2022-11-29T02:54:52.438Z,98315.66
2022-11-29T02:57:38.458Z,98316.66
2022-11-29T03:00:07.203Z,98321.25
2022-11-29T03:02:53.530Z,98328.41
2022-11-29T03:05:38.788Z,98327.03
2022-11-29T03:08:24.130Z,98326.13
2022-11-29T03:11:07.220Z,98323.16
2022-11-29T03:13:50.855Z,98334.28
2022-11-29T03:16:48.549Z,98331.75
2022-11-29T03:19:31.175Z,98342.13
2022-11-29T03:22:12.754Z,98341.63
2022-11-29T03:24:54.994Z,98340.28
2022-11-29T03:27:28.788Z,98336.19
2022-11-29T03:29:59.591Z,98347.09
2022-11-29T03:32:33.174Z,98351.50
2022-11-29T03:35:07.702Z,98344.88
2022-11-29T03:37:52.965Z,98353.00
2022-11-29T03:40:29.468Z,98353.81
2022-11-29T03:43:06.977Z,98345.78
2022-11-29T03:45:40.041Z,98354.13
2022-11-29T03:48:12.466Z,98357.28
2022-11-29T03:50:44.091Z,98362.16
2022-11-29T03:53:25.557Z,98357.41
2022-11-29T03:56:03.986Z,98351.09
2022-11-29T03:59:00.183Z,98353.75
2022-11-29T04:01:50.791Z,98351.25
2022-11-29T04:04:54.833Z,98367.47
2022-11-29T04:07:24.277Z,98362.81
2022-11-29T04:09:59.610Z,98366.63
2022-11-29T04:13:00.691Z,98363.09
2022-11-29T04:16:03.533Z,98369.25
2022-11-29T04:18:51.694Z,98369.91
2022-11-29T04:21:34.969Z,98378.19
2022-11-29T04:24:39.915Z,98376.97
2022-11-29T04:27:18.188Z,98374.09
2022-11-29T04:29:50.547Z,98374.84
2022-11-29T04:32:39.688Z,98376.22
2022-11-29T04:35:24.207Z,98376.53
2022-11-29T04:38:15.365Z,98384.44
2022-11-29T04:41:00.518Z,98387.69
2022-11-29T04:43:50.613Z,98392.34
2022-11-29T04:47:13.021Z,98389.66
2022-11-29T04:50:24.351Z,98383.88
2022-11-29T04:53:13.668Z,98393.81
2022-11-29T04:55:56.783Z,98396.91
2022-11-29T04:58:55.073Z,98392.34
2022-11-29T05:01:36.188Z,98395.78
2022-11-29T05:04:08.604Z,98394.28
2022-11-29T05:06:43.848Z,98386.00
2022-11-29T05:09:32.924Z,98399.44
2022-11-29T05:12:14.197Z,98394.88
2022-11-29T05:15:18.358Z,98396.06
2022-11-29T05:18:07.470Z,98403.88
2022-11-29T05:20:54.141Z,98400.19
2022-11-29T05:23:38.456Z,98410.59
2022-11-29T05:26:13.050Z,98407.25
2022-11-29T05:28:57.992Z,98420.94
2022-11-29T05:31:46.450Z,98412.16
2022-11-29T05:34:35.153Z,98412.16
2022-11-29T05:37:26.153Z,98417.84
2022-11-29T05:40:27.028Z,98416.56
2022-11-29T05:43:05.608Z,98414.25
2022-11-29T05:45:41.182Z,98421.31
2022-11-29T05:48:17.652Z,98420.28
2022-11-29T05:51:10.333Z,98424.00
2022-11-29T05:54:09.441Z,98424.09
2022-11-29T05:56:53.217Z,98427.47
2022-11-29T05:59:25.057Z,98431.66
2022-11-29T06:02:05.977Z,98438.53
2022-11-29T06:04:57.364Z,98431.84
2022-11-29T06:07:38.804Z,98431.38
2022-11-29T06:10:26.143Z,98442.91
2022-11-29T06:13:11.444Z,98438.72
2022-11-29T06:15:51.546Z,98445.38
2022-11-29T06:18:18.012Z,98446.19
2022-11-29T06:21:13.255Z,98445.38
2022-11-29T06:23:41.428Z,98445.44
2022-11-29T06:26:24.179Z,98450.47
2022-11-29T06:28:50.617Z,98449.16
2022-11-29T06:31:38.472Z,98454.75
2022-11-29T06:34:46.552Z,98462.09
2022-11-29T06:37:35.624Z,98453.34
2022-11-29T06:40:02.376Z,98461.16
2022-11-29T06:42:28.906Z,98456.88
2022-11-29T06:44:55.825Z,98458.91
2022-11-29T06:48:02.429Z,98468.69
2022-11-29T06:51:06.371Z,98467.25
2022-11-29T06:53:35.923Z,98466.56
2022-11-29T06:56:04.987Z,98470.19
2022-11-29T06:58:50.431Z,98464.53
2022-11-29T07:01:28.796Z,98461.94
2022-11-29T07:04:17.220Z,98466.22
2022-11-29T07:06:44.026Z,98470.03
2022-11-29T07:09:15.211Z,98474.88
2022-11-29T07:11:42.931Z,98470.38
2022-11-29T07:14:10.054Z,98473.56
2022-11-29T07:17:04.333Z,98479.31
2022-11-29T07:19:43.197Z,98482.41
2022-11-29T07:22:40.132Z,98483.44
2022-11-29T07:25:45.532Z,98485.47
2022-11-29T07:28:51.093Z,98478.56
2022-11-29T07:31:26.380Z,98487.28
2022-11-29T07:34:04.909Z,98487.44
2022-11-29T07:36:44.238Z,98493.97
2022-11-29T07:39:20.260Z,98491.44
2022-11-29T07:41:51.337Z,98496.94
2022-11-29T07:44:37.332Z,98493.22
2022-11-29T07:47:03.897Z,98503.53
2022-11-29T07:49:30.600Z,98498.03
2022-11-29T07:51:57.240Z,98512.47
2022-11-29T07:54:24.028Z,98506.59
2022-11-29T07:56:50.496Z,98509.59
2022-11-29T07:59:17.093Z,98514.94
2022-11-29T08:01:43.835Z,98515.97
2022-11-29T08:04:10.412Z,98519.31
2022-11-29T08:06:36.948Z,98512.13
2022-11-29T08:09:04.609Z,98510.09
2022-11-29T08:11:31.265Z,98513.63
2022-11-29T08:13:59.774Z,98516.88
2022-11-29T08:16:26.880Z,98519.31
2022-11-29T08:18:53.592Z,98524.63
2022-11-29T08:21:20.134Z,98520.81
2022-11-29T08:23:47.717Z,98521.44
2022-11-29T08:26:14.686Z,98514.38
2022-11-29T08:28:41.311Z,98522.94
2022-11-29T08:31:10.127Z,98522.19
2022-11-29T08:33:38.621Z,98514.72
2022-11-29T08:36:09.580Z,98512.75
2022-11-29T08:38:36.101Z,98519.56
2022-11-29T08:41:07.805Z,98527.38
2022-11-29T08:43:34.680Z,98527.97
2022-11-29T08:46:01.515Z,98526.28
2022-11-29T08:48:28.054Z,98522.66
2022-11-29T08:50:56.055Z,98522.88
2022-11-29T08:53:41.729Z,98522.28
2022-11-29T08:56:41.856Z,98522.13
2022-11-29T08:58:57.251Z,98533.69
2022-11-29T09:01:23.838Z,98543.03
2022-11-29T09:03:59.485Z,98538.72
2022-11-29T09:06:28.061Z,98547.06
2022-11-29T09:08:56.458Z,98542.53
2022-11-29T09:11:24.995Z,98542.06
2022-11-29T09:13:54.468Z,98546.81
2022-11-29T09:16:23.277Z,98539.56
2022-11-29T09:18:51.834Z,98551.47
2022-11-29T09:21:19.019Z,98544.47
2022-11-29T09:23:46.241Z,98551.47
2022-11-29T09:26:18.386Z,98543.03
2022-11-29T09:28:45.842Z,98552.97
2022-11-29T09:31:15.731Z,98548.19
2022-11-29T09:33:42.511Z,98545.31
2022-11-29T09:36:11.164Z,98558.47
2022-11-29T09:38:38.192Z,98554.81
2022-11-29T09:41:23.110Z,98547.03
2022-11-29T09:44:17.123Z,98546.56
2022-11-29T09:47:14.870Z,98555.53
2022-11-29T09:49:45.899Z,98560.94
2022-11-29T09:53:00.886Z,98561.47
2022-11-29T09:55:33.238Z,98559.03
2022-11-29T09:58:01.063Z,98554.59
2022-11-29T10:00:29.544Z,98554.03
2022-11-29T10:03:09.932Z,98558.28
2022-11-29T10:05:44.348Z,98550.56
2022-11-29T10:08:23.301Z,98558.19
2022-11-29T10:10:52.979Z,98565.63
2022-11-29T10:13:38.143Z,98561.00
2022-11-29T10:16:13.041Z,98559.53
2022-11-29T10:18:56.006Z,98558.06
2022-11-29T10:21:28.002Z,98560.16
2022-11-29T10:23:57.654Z,98558.97
2022-11-29T10:26:25.893Z,98564.00
2022-11-29T10:28:57.524Z,98559.91
2022-11-29T10:31:29.442Z,98557.78
2022-11-29T10:33:58.276Z,98564.75
2022-11-29T10:36:40.460Z,98556.63
2022-11-29T10:39:23.147Z,98563.84
2022-11-29T10:41:54.674Z,98551.31
2022-11-29T10:44:21.578Z,98561.88
2022-11-29T10:46:48.420Z,98568.28
2022-11-29T10:49:18.695Z,98558.97
2022-11-29T10:51:46.833Z,98569.63
2022-11-29T10:54:31.119Z,98560.25
2022-11-29T10:56:59.490Z,98552.97
2022-11-29T10:59:29.154Z,98562.63
2022-11-29T11:01:57.247Z,98573.00
2022-11-29T11:04:31.991Z,98568.84
2022-11-29T11:07:02.285Z,98560.91
2022-11-29T11:09:31.372Z,98572.53
2022-11-29T11:12:00.245Z,98573.53
2022-11-29T11:14:33.093Z,98573.00
2022-11-29T11:17:20.855Z,98576.25
2022-11-29T11:20:27.261Z,98570.56
2022-11-29T11:23:02.251Z,98575.59
2022-11-29T11:25:35.119Z,98577.53
2022-11-29T11:28:21.911Z,98572.13
2022-11-29T11:31:02.096Z,98580.25
2022-11-29T11:33:35.274Z,98571.31
2022-11-29T11:36:09.717Z,98578.31
2022-11-29T11:38:48.973Z,98580.28
2022-11-29T11:41:22.867Z,98580.69
2022-11-29T11:43:59.955Z,98587.59
2022-11-29T11:46:46.806Z,98581.59
2022-11-29T11:49:21.081Z,98580.69
2022-11-29T11:51:47.596Z,98592.31
2022-11-29T11:54:15.436Z,98584.28
2022-11-29T11:56:42.553Z,98591.44
2022-11-29T11:59:21.040Z,98585.38
2022-11-29T12:01:48.135Z,98589.66
2022-11-29T12:04:23.529Z,98585.31
2022-11-29T12:07:02.968Z,98586.31
2022-11-29T12:09:46.421Z,98591.78
2022-11-29T12:12:21.277Z,98593.44
2022-11-29T12:15:04.611Z,98596.50
2022-11-29T12:17:36.791Z,98592.88
2022-11-29T12:20:10.488Z,98588.59
2022-11-29T12:23:07.942Z,98589.59
2022-11-29T12:25:46.772Z,98594.53
2022-11-29T12:28:20.296Z,98595.66
2022-11-29T12:31:03.197Z,98590.41
2022-11-29T12:33:55.830Z,98603.22
2022-11-29T12:36:37.313Z,98598.91
2022-11-29T12:39:33.469Z,98598.09
2022-11-29T12:42:35.965Z,98602.47
2022-11-29T12:45:20.638Z,98605.31
2022-11-29T12:48:02.264Z,98608.19
2022-11-29T12:50:39.096Z,98609.59
2022-11-29T12:53:22.544Z,98612.31
2022-11-29T12:56:07.359Z,98613.50
2022-11-29T12:58:56.288Z,98615.88
2022-11-29T13:01:27.674Z,98615.09
2022-11-29T13:04:09.124Z,98624.38
2022-11-29T13:07:30.927Z,98626.16
2022-11-29T13:10:17.894Z,98621.00
2022-11-29T13:12:53.688Z,98626.50
2022-11-29T13:15:51.546Z,98628.06
2022-11-29T13:18:44.419Z,98625.47
2022-11-29T13:21:15.498Z,98632.72
2022-11-29T13:26:33.132Z,98630.22
2022-11-29T13:29:01.779Z,98638.34
2022-11-29T13:31:28.959Z,98634.75
2022-11-29T13:34:01.479Z,98639.25
2022-11-29T13:37:05.605Z,98642.16
2022-11-29T13:39:39.382Z,98650.38
2022-11-29T13:42:26.733Z,98643.81
2022-11-29T13:45:07.597Z,98649.59
2022-11-29T13:47:47.909Z,98638.22
2022-11-29T13:50:49.928Z,98645.75
2022-11-29T13:53:21.776Z,98646.97
2022-11-29T13:56:02.080Z,98646.66
2022-11-29T13:58:28.758Z,98653.59
2022-11-29T14:01:01.630Z,98657.41
2022-11-29T14:03:33.312Z,98656.75
2022-11-29T14:06:03.318Z,98656.31
2022-11-29T14:09:02.538Z,98659.19
2022-11-29T14:11:46.040Z,98661.44
2022-11-29T14:14:27.501Z,98663.50
2022-11-29T14:17:29.076Z,98654.91
2022-11-29T14:20:30.594Z,98656.88
2022-11-29T14:23:07.586Z,98657.72
2022-11-29T14:26:00.862Z,98659.75
2022-11-29T14:28:31.289Z,98651.97
2022-11-29T14:31:03.075Z,98670.50
2022-11-29T14:33:56.494Z,98658.94
2022-11-29T14:36:45.662Z,98654.97
2022-11-29T14:39:43.632Z,98657.66
2022-11-29T14:42:22.118Z,98655.31
2022-11-29T14:44:48.596Z,98657.75
2022-11-29T14:47:47.201Z,98656.91
2022-11-29T14:50:35.784Z,98655.41
2022-11-29T14:53:03.847Z,98663.22
2022-11-29T14:55:36.539Z,98658.09
2022-11-29T14:58:04.069Z,98670.69
2022-11-29T15:00:57.179Z,98672.41
2022-11-29T15:03:34.857Z,98677.50
2022-11-29T15:06:25.127Z,98675.94
2022-11-29T15:09:02.080Z,98674.06
2022-11-29T15:11:37.652Z,98672.09
2022-11-29T15:14:31.951Z,98682.06
2022-11-29T15:17:29.133Z,98676.38
2022-11-29T15:20:13.911Z,98682.63
2022-11-29T15:22:52.401Z,98688.69
2022-11-29T15:25:31.651Z,98692.59
2022-11-29T15:28:03.709Z,98700.16
2022-11-29T15:30:38.983Z,98696.41
2022-11-29T15:33:08.684Z,98698.38
2022-11-29T15:35:36.226Z,98704.41
2022-11-29T15:38:02.877Z,98713.28
2022-11-29T15:40:35.166Z,98704.09
2022-11-29T15:43:16.579Z,98712.38
2022-11-29T15:45:51.348Z,98710.75
2022-11-29T15:48:25.217Z,98711.19
2022-11-29T15:51:03.824Z,98720.78
2022-11-29T15:53:39.781Z,98726.63
2022-11-29T15:56:33.547Z,98724.50
2022-11-29T15:59:08.485Z,98717.25
2022-11-29T16:01:36.137Z,98725.34
2022-11-29T16:04:02.789Z,98726.56
2022-11-29T16:06:38.184Z,98726.75
2022-11-29T16:09:09.819Z,98723.75
2022-11-29T16:11:37.160Z,98734.03
2022-11-29T16:14:23.824Z,98729.63
2022-11-29T16:16:52.639Z,98731.53
2022-11-29T16:19:28.473Z,98728.53
2022-11-29T16:22:11.600Z,98735.91
2022-11-29T16:24:40.124Z,98739.00
2022-11-29T16:27:07.969Z,98736.16
2022-11-29T16:29:37.251Z,98743.88
2022-11-29T16:32:27.106Z,98738.84
2022-11-29T16:34:54.932Z,98737.91
2022-11-29T16:37:26.795Z,98733.81
2022-11-29T16:39:59.442Z,98742.81
2022-11-29T16:42:30.431Z,98746.72
2022-11-29T16:45:05.632Z,98747.16
2022-11-29T16:47:46.849Z,98747.31
2022-11-29T16:50:16.740Z,98752.53
2022-11-29T16:52:43.923Z,98753.94
2022-11-29T16:55:10.402Z,98754.09
2022-11-29T16:57:37.882Z,98750.41
2022-11-29T17:00:33.969Z,98759.56
2022-11-29T17:03:00.747Z,98754.53
2022-11-29T17:05:27.583Z,98759.69
2022-11-29T17:07:54.669Z,98759.34
2022-11-29T17:10:24.262Z,98760.44
2022-11-29T17:12:51.278Z,98759.34
2022-11-29T17:15:17.796Z,98758.31
2022-11-29T17:17:44.333Z,98765.25
2022-11-29T17:20:13.168Z,98769.41
2022-11-29T17:22:40.364Z,98764.75
2022-11-29T17:25:07.415Z,98765.50
2022-11-29T17:27:33.904Z,98774.16
2022-11-29T17:30:00.451Z,98772.63
2022-11-29T17:32:27.320Z,98770.50
2022-11-29T17:34:54.341Z,98776.59
2022-11-29T17:37:20.957Z,98771.78
2022-11-29T17:39:49.197Z,98776.06
2022-11-29T17:42:15.936Z,98778.66
2022-11-29T17:44:42.501Z,98781.09
2022-11-29T17:47:09.247Z,98783.63
2022-11-29T17:49:35.848Z,98795.94
2022-11-29T17:52:02.673Z,98798.81
2022-11-29T17:54:32.985Z,98804.59
2022-11-29T17:57:00.967Z,98796.19
2022-11-29T17:59:27.410Z,98792.94
2022-11-29T18:01:53.841Z,98795.97
2022-11-29T18:04:20.523Z,98798.50
2022-11-29T18:06:50.256Z,98802.25
2022-11-29T18:09:18.278Z,98806.84
2022-11-29T18:11:48.640Z,98804.22
2022-11-29T18:14:23.308Z,98804.28
2022-11-29T18:16:50.318Z,98803.25
2022-11-29T18:19:19.164Z,98799.84
2022-11-29T18:21:45.927Z,98803.31
2022-11-29T18:24:12.651Z,98798.06
2022-11-29T18:26:39.740Z,98797.06
2022-11-29T18:29:07.350Z,98798.94
2022-11-29T18:31:34.716Z,98799.38
2022-11-29T18:34:02.027Z,98799.72
2022-11-29T18:36:34.245Z,98803.47
2022-11-29T18:39:09.895Z,98800.75
2022-11-29T18:41:37.532Z,98802.38
2022-11-29T18:44:05.500Z,98815.91
2022-11-29T18:46:32.982Z,98811.91
2022-11-29T18:49:01.445Z,98803.25
2022-11-29T18:51:30.312Z,98809.31
2022-11-29T18:53:58.327Z,98807.97
2022-11-29T18:56:28.045Z,98801.00
2022-11-29T18:58:59.167Z,98807.63
2022-11-29T19:01:28.119Z,98804.56
2022-11-29T19:03:56.822Z,98813.94
2022-11-29T19:06:28.896Z,98818.56
2022-11-29T19:08:58.477Z,98822.03
2022-11-29T19:11:30.179Z,98812.91
2022-11-29T19:13:59.982Z,98819.97
2022-11-29T19:16:28.996Z,98817.28
2022-11-29T19:18:57.595Z,98825.56
2022-11-29T19:21:26.323Z,98828.50
2022-11-29T19:23:54.889Z,98824.56
2022-11-29T19:26:22.485Z,98821.19
2022-11-29T19:28:49.159Z,98824.44
2022-11-29T19:31:17.853Z,98833.13
2022-11-29T19:33:45.632Z,98826.41
2022-11-29T19:36:17.712Z,98829.47
2022-11-29T19:38:48.849Z,98825.66
2022-11-29T19:41:28.265Z,98830.50
2022-11-29T19:44:00.102Z,98840.00
2022-11-29T19:46:29.271Z,98828.34
2022-11-29T19:48:56.894Z,98833.38
2022-11-29T19:51:23.729Z,98830.34
2022-11-29T19:53:54.699Z,98833.78
2022-11-29T19:56:21.644Z,98827.41
2022-11-29T19:58:48.802Z,98836.31
2022-11-29T20:01:18.551Z,98837.56
2022-11-29T20:03:45.299Z,98837.47
2022-11-29T20:06:13.655Z,98842.84
2022-11-29T20:08:40.773Z,98846.84
2022-11-29T20:11:28.584Z,98849.75
2022-11-29T20:14:02.594Z,98852.50
2022-11-29T20:16:30.315Z,98852.41
2022-11-29T20:18:58.027Z,98847.47
2022-11-29T20:21:26.006Z,98853.28
2022-11-29T20:24:00.169Z,98864.63
2022-11-29T20:26:30.553Z,98862.75
2022-11-29T20:28:57.211Z,98861.72
2022-11-29T20:31:24.102Z,98874.22
2022-11-29T20:33:52.906Z,98866.59
2022-11-29T20:36:29.174Z,98871.81
2022-11-29T20:39:06.207Z,98870.53
2022-11-29T20:41:38.584Z,98874.81
2022-11-29T20:44:05.315Z,98877.59
2022-11-29T20:46:32.127Z,98881.97
2022-11-29T20:49:04.713Z,98879.63
2022-11-29T20:51:40.263Z,98879.00
2022-11-29T20:54:06.781Z,98876.59
2022-11-29T20:56:33.301Z,98878.84
2022-11-29T20:58:59.912Z,98879.91
2022-11-29T21:01:26.466Z,98877.22
2022-11-29T21:03:53.854Z,98869.09
2022-11-29T21:06:20.416Z,98870.13
2022-11-29T21:08:48.223Z,98866.38
2022-11-29T21:11:14.825Z,98874.44
2022-11-29T21:13:41.727Z,98870.69
2022-11-29T21:16:11.133Z,98870.47
2022-11-29T21:18:38.206Z,98871.19
2022-11-29T21:21:20.780Z,98873.06
2022-11-29T21:24:03.106Z,98874.81
2022-11-29T21:26:42.176Z,98877.06
2022-11-29T21:29:19.264Z,98875.47
2022-11-29T21:31:47.661Z,98879.16
2022-11-29T21:34:14.283Z,98883.44
2022-11-29T21:36:41.181Z,98882.72
2022-11-29T21:39:10.798Z,98880.00
2022-11-29T21:41:37.251Z,98881.97
2022-11-29T21:44:07.000Z,98883.16
2022-11-29T21:46:34.491Z,98879.09
2022-11-29T21:49:01.104Z,98883.44
2022-11-29T21:51:27.567Z,98878.41
2022-11-29T21:53:54.079Z,98888.25
2022-11-29T21:56:20.695Z,98890.22
2022-11-29T21:58:47.309Z,98887.47
2022-11-29T22:01:16.586Z,98887.91
2022-11-29T22:03:44.252Z,98896.59
2022-11-29T22:06:11.985Z,98897.22
2022-11-29T22:08:40.609Z,98892.44
2022-11-29T22:11:12.645Z,98895.13
2022-11-29T22:13:59.649Z,98894.84
2022-11-29T22:16:26.324Z,98892.63
2022-11-29T22:18:53.232Z,98894.41
2022-11-29T22:21:20.072Z,98898.13
2022-11-29T22:23:46.564Z,98899.09
2022-11-29T22:26:13.465Z,98892.78
2022-11-29T22:28:39.933Z,98895.59
2022-11-29T22:31:09.499Z,98885.25
2022-11-29T22:33:36.575Z,98893.84
2022-11-29T22:36:08.271Z,98885.50
2022-11-29T22:38:35.079Z,98886.56
2022-11-29T22:41:04.487Z,98881.75
2022-11-29T22:43:32.337Z,98883.50
2022-11-29T22:46:05.995Z,98884.53
2022-11-29T22:48:38.180Z,98881.00
2022-11-29T22:51:11.321Z,98880.00
2022-11-29T22:53:39.584Z,98884.53
2022-11-29T22:56:08.677Z,98879.25
2022-11-29T22:58:36.182Z,98888.16
2022-11-29T23:01:05.162Z,98889.38
2022-11-29T23:03:36.557Z,98878.63
2022-11-29T23:06:08.065Z,98881.34
2022-11-29T23:08:35.170Z,98884.41
2022-11-29T23:11:06.557Z,98885.81
2022-11-29T23:13:37.812Z,98891.06
2022-11-29T23:16:06.240Z,98884.88
2022-11-29T23:18:33.004Z,98885.94
2022-11-29T23:21:05.412Z,98887.72
2022-11-29T23:23:32.077Z,98886.22
2022-11-29T23:25:59.435Z,98878.72
2022-11-29T23:28:26.716Z,98880.28
2022-11-29T23:30:54.486Z,98875.50
2022-11-29T23:33:24.222Z,98880.53
2022-11-29T23:35:51.496Z,98882.53
2022-11-29T23:38:18.331Z,98887.06
2022-11-29T23:40:44.850Z,98880.84
2022-11-29T23:43:11.394Z,98880.09
2022-11-29T23:45:41.871Z,98882.78
2022-11-29T23:48:08.457Z,98889.56
2022-11-29T23:50:35.109Z,98880.28
2022-11-29T23:53:01.653Z,98883.63
2022-11-29T23:55:28.166Z,98883.97
2022-11-29T23:57:54.640Z,98887.91
